sensor_id;sensor_type;location;lat;lon;timestamp;P1;durP1;ratioP1;P2;durP2;ratioP2
48361;SDS011;34510;51.888;5.670;2023-08-08T00:04:04;780.95;;;715.22;;
48361;SDS011;34510;51.888;5.670;2023-08-08T00:09:06;764.15;;;704.15;;
48361;SDS011;34510;51.888;5.670;2023-08-08T00:14:08;802.10;;;737.45;;
48361;SDS011;34510;51.888;5.670;2023-08-08T00:19:10;796.28;;;727.05;;
48361;SDS011;34510;51.888;5.670;2023-08-08T00:24:11;811.22;;;740.95;;
48361;SDS011;34510;51.888;5.670;2023-08-08T00:29:13;779.15;;;715.53;;
48361;SDS011;34510;51.888;5.670;2023-08-08T00:34:15;804.33;;;733.90;;
48361;SDS011;34510;51.888;5.670;2023-08-08T00:39:17;820.35;;;746.95;;
48361;SDS011;34510;51.888;5.670;2023-08-08T00:44:19;808.35;;;735.83;;
48361;SDS011;34510;51.888;5.670;2023-08-08T00:49:22;799.80;;;726.60;;
48361;SDS011;34510;51.888;5.670;2023-08-08T00:54:24;797.35;;;720.45;;
48361;SDS011;34510;51.888;5.670;2023-08-08T00:59:26;720.58;;;665.15;;
48361;SDS011;34510;51.888;5.670;2023-08-08T01:04:28;792.03;;;727.28;;
48361;SDS011;34510;51.888;5.670;2023-08-08T01:09:39;807.15;;;730.03;;
48361;SDS011;34510;51.888;5.670;2023-08-08T01:14:43;827.58;;;747.80;;
48361;SDS011;34510;51.888;5.670;2023-08-08T01:19:45;813.83;;;743.25;;
48361;SDS011;34510;51.888;5.670;2023-08-08T01:24:47;830.33;;;747.30;;
48361;SDS011;34510;51.888;5.670;2023-08-08T01:29:49;805.17;;;729.15;;
48361;SDS011;34510;51.888;5.670;2023-08-08T01:34:51;822.28;;;738.95;;
48361;SDS011;34510;51.888;5.670;2023-08-08T01:39:53;819.58;;;737.05;;
48361;SDS011;34510;51.888;5.670;2023-08-08T01:44:56;811.63;;;732.50;;
48361;SDS011;34510;51.888;5.670;2023-08-08T01:49:58;839.95;;;752.05;;
48361;SDS011;34510;51.888;5.670;2023-08-08T01:55:00;822.38;;;735.95;;
48361;SDS011;34510;51.888;5.670;2023-08-08T02:00:02;838.40;;;749.03;;
48361;SDS011;34510;51.888;5.670;2023-08-08T02:05:15;826.35;;;739.50;;
48361;SDS011;34510;51.888;5.670;2023-08-08T02:10:17;844.60;;;756.20;;
48361;SDS011;34510;51.888;5.670;2023-08-08T02:15:20;826.95;;;740.55;;
48361;SDS011;34510;51.888;5.670;2023-08-08T02:20:22;826.83;;;739.40;;
48361;SDS011;34510;51.888;5.670;2023-08-08T02:25:26;819.58;;;731.42;;
48361;SDS011;34510;51.888;5.670;2023-08-08T02:30:28;822.63;;;733.38;;
48361;SDS011;34510;51.888;5.670;2023-08-08T02:35:30;840.88;;;749.38;;
48361;SDS011;34510;51.888;5.670;2023-08-08T02:40:32;833.40;;;741.63;;
48361;SDS011;34510;51.888;5.670;2023-08-08T02:45:35;836.72;;;746.33;;
48361;SDS011;34510;51.888;5.670;2023-08-08T02:50:37;828.72;;;750.72;;
48361;SDS011;34510;51.888;5.670;2023-08-08T02:55:40;817.65;;;735.38;;
48361;SDS011;34510;51.888;5.670;2023-08-08T03:00:42;815.78;;;726.70;;
48361;SDS011;34510;51.888;5.670;2023-08-08T03:05:48;808.15;;;710.05;;
48361;SDS011;34510;51.888;5.670;2023-08-08T03:10:52;814.03;;;725.85;;
48361;SDS011;34510;51.888;5.670;2023-08-08T03:15:54;799.72;;;715.15;;
48361;SDS011;34510;51.888;5.670;2023-08-08T03:20:58;832.25;;;740.75;;
48361;SDS011;34510;51.888;5.670;2023-08-08T03:26:04;804.20;;;723.53;;
48361;SDS011;34510;51.888;5.670;2023-08-08T03:31:05;775.17;;;708.13;;
48361;SDS011;34510;51.888;5.670;2023-08-08T03:36:09;739.40;;;678.80;;
48361;SDS011;34510;51.888;5.670;2023-08-08T03:41:11;752.33;;;690.85;;
48361;SDS011;34510;51.888;5.670;2023-08-08T03:46:13;743.10;;;682.95;;
48361;SDS011;34510;51.888;5.670;2023-08-08T03:51:15;694.03;;;639.92;;
48361;SDS011;34510;51.888;5.670;2023-08-08T03:56:17;719.72;;;663.40;;
48361;SDS011;34510;51.888;5.670;2023-08-08T04:01:19;705.80;;;650.22;;
48361;SDS011;34510;51.888;5.670;2023-08-08T04:06:21;800.70;;;729.40;;
48361;SDS011;34510;51.888;5.670;2023-08-08T04:11:23;780.45;;;715.97;;
48361;SDS011;34510;51.888;5.670;2023-08-08T04:16:25;738.97;;;680.63;;
48361;SDS011;34510;51.888;5.670;2023-08-08T04:21:29;745.75;;;686.55;;
48361;SDS011;34510;51.888;5.670;2023-08-08T04:26:34;772.15;;;707.47;;
48361;SDS011;34510;51.888;5.670;2023-08-08T04:31:36;790.88;;;721.00;;
48361;SDS011;34510;51.888;5.670;2023-08-08T04:36:38;802.35;;;729.40;;
48361;SDS011;34510;51.888;5.670;2023-08-08T04:41:40;792.78;;;721.78;;
48361;SDS011;34510;51.888;5.670;2023-08-08T04:46:42;805.00;;;733.78;;
48361;SDS011;34510;51.888;5.670;2023-08-08T04:51:44;795.15;;;718.85;;
48361;SDS011;34510;51.888;5.670;2023-08-08T04:56:45;808.88;;;729.45;;
48361;SDS011;34510;51.888;5.670;2023-08-08T05:01:47;800.72;;;722.58;;
48361;SDS011;34510;51.888;5.670;2023-08-08T05:06:49;798.90;;;722.08;;
48361;SDS011;34510;51.888;5.670;2023-08-08T05:11:51;821.55;;;736.83;;
48361;SDS011;34510;51.888;5.670;2023-08-08T05:16:53;802.83;;;723.08;;
48361;SDS011;34510;51.888;5.670;2023-08-08T05:21:55;806.53;;;719.08;;
48361;SDS011;34510;51.888;5.670;2023-08-08T05:26:57;816.20;;;725.45;;
48361;SDS011;34510;51.888;5.670;2023-08-08T05:31:59;823.45;;;732.80;;
48361;SDS011;34510;51.888;5.670;2023-08-08T05:37:01;842.78;;;750.85;;
48361;SDS011;34510;51.888;5.670;2023-08-08T05:42:18;842.13;;;757.13;;
48361;SDS011;34510;51.888;5.670;2023-08-08T05:47:19;850.80;;;771.00;;
48361;SDS011;34510;51.888;5.670;2023-08-08T05:52:21;831.10;;;740.00;;
48361;SDS011;34510;51.888;5.670;2023-08-08T05:57:25;839.55;;;747.83;;
48361;SDS011;34510;51.888;5.670;2023-08-08T06:02:28;833.90;;;743.40;;
48361;SDS011;34510;51.888;5.670;2023-08-08T06:07:29;857.83;;;765.28;;
48361;SDS011;34510;51.888;5.670;2023-08-08T06:12:31;861.63;;;769.95;;
48361;SDS011;34510;51.888;5.670;2023-08-08T06:17:33;858.92;;;777.33;;
48361;SDS011;34510;51.888;5.670;2023-08-08T06:22:36;866.05;;;788.10;;
48361;SDS011;34510;51.888;5.670;2023-08-08T06:27:38;866.13;;;786.15;;
48361;SDS011;34510;51.888;5.670;2023-08-08T06:32:40;899.15;;;815.20;;
48361;SDS011;34510;51.888;5.670;2023-08-08T06:37:42;903.13;;;809.83;;
48361;SDS011;34510;51.888;5.670;2023-08-08T06:42:45;912.03;;;817.83;;
48361;SDS011;34510;51.888;5.670;2023-08-08T06:47:46;882.58;;;810.58;;
48361;SDS011;34510;51.888;5.670;2023-08-08T06:52:48;897.05;;;822.70;;
48361;SDS011;34510;51.888;5.670;2023-08-08T06:57:50;885.92;;;813.05;;
48361;SDS011;34510;51.888;5.670;2023-08-08T07:02:52;895.35;;;820.25;;
48361;SDS011;34510;51.888;5.670;2023-08-08T07:07:54;899.28;;;825.58;;
48361;SDS011;34510;51.888;5.670;2023-08-08T07:12:56;919.33;;;843.10;;
48361;SDS011;34510;51.888;5.670;2023-08-08T07:17:58;934.13;;;856.45;;
48361;SDS011;34510;51.888;5.670;2023-08-08T07:23:00;870.25;;;804.40;;
48361;SDS011;34510;51.888;5.670;2023-08-08T07:28:03;884.33;;;817.13;;
48361;SDS011;34510;51.888;5.670;2023-08-08T07:33:05;844.53;;;781.45;;
48361;SDS011;34510;51.888;5.670;2023-08-08T07:38:07;829.42;;;767.63;;
48361;SDS011;34510;51.888;5.670;2023-08-08T07:43:09;838.47;;;776.42;;
48361;SDS011;34510;51.888;5.670;2023-08-08T07:48:11;957.83;;;882.47;;
48361;SDS011;34510;51.888;5.670;2023-08-08T07:53:13;972.83;;;895.28;;
48361;SDS011;34510;51.888;5.670;2023-08-08T07:58:15;1005.47;;;907.95;;
48361;SDS011;34510;51.888;5.670;2023-08-08T08:03:17;989.67;;;905.22;;
48361;SDS011;34510;51.888;5.670;2023-08-08T08:08:19;982.92;;;901.28;;
48361;SDS011;34510;51.888;5.670;2023-08-08T08:13:23;936.50;;;864.85;;
48361;SDS011;34510;51.888;5.670;2023-08-08T08:18:24;961.42;;;886.10;;
48361;SDS011;34510;51.888;5.670;2023-08-08T08:23:26;984.80;;;901.40;;
48361;SDS011;34510;51.888;5.670;2023-08-08T08:28:28;960.15;;;884.72;;
48361;SDS011;34510;51.888;5.670;2023-08-08T08:33:30;958.63;;;881.88;;
48361;SDS011;34510;51.888;5.670;2023-08-08T08:38:32;961.95;;;886.58;;
48361;SDS011;34510;51.888;5.670;2023-08-08T08:43:34;982.78;;;902.80;;
48361;SDS011;34510;51.888;5.670;2023-08-08T08:48:36;992.97;;;901.10;;
48361;SDS011;34510;51.888;5.670;2023-08-08T08:53:38;1013.67;;;922.22;;
48361;SDS011;34510;51.888;5.670;2023-08-08T08:58:47;997.25;;;911.22;;
48361;SDS011;34510;51.888;5.670;2023-08-08T09:03:49;1020.63;;;935.58;;
48361;SDS011;34510;51.888;5.670;2023-08-08T09:08:51;1028.38;;;941.83;;
48361;SDS011;34510;51.888;5.670;2023-08-08T09:14:03;1018.58;;;931.67;;
48361;SDS011;34510;51.888;5.670;2023-08-08T09:19:05;1013.70;;;928.65;;
48361;SDS011;34510;51.888;5.670;2023-08-08T09:24:07;1024.10;;;935.40;;
48361;SDS011;34510;51.888;5.670;2023-08-08T09:29:09;1023.35;;;937.13;;
48361;SDS011;34510;51.888;5.670;2023-08-08T09:34:11;1036.05;;;948.67;;
48361;SDS011;34510;51.888;5.670;2023-08-08T09:39:13;1031.00;;;941.50;;
48361;SDS011;34510;51.888;5.670;2023-08-08T09:44:15;1039.15;;;940.30;;
48361;SDS011;34510;51.888;5.670;2023-08-08T09:49:17;1042.82;;;943.60;;
48361;SDS011;34510;51.888;5.670;2023-08-08T09:54:19;1048.45;;;949.28;;
48361;SDS011;34510;51.888;5.670;2023-08-08T09:59:21;1050.65;;;950.92;;
48361;SDS011;34510;51.888;5.670;2023-08-08T10:04:23;1053.78;;;953.95;;
48361;SDS011;34510;51.888;5.670;2023-08-08T10:09:25;1054.13;;;954.25;;
48361;SDS011;34510;51.888;5.670;2023-08-08T10:14:31;1053.82;;;953.80;;
48361;SDS011;34510;51.888;5.670;2023-08-08T10:19:33;1069.60;;;968.45;;
48361;SDS011;34510;51.888;5.670;2023-08-08T10:24:35;947.92;;;876.00;;
48361;SDS011;34510;51.888;5.670;2023-08-08T10:29:38;945.88;;;874.08;;
48361;SDS011;34510;51.888;5.670;2023-08-08T10:34:41;955.28;;;882.25;;
48361;SDS011;34510;51.888;5.670;2023-08-08T10:39:52;962.92;;;889.70;;
48361;SDS011;34510;51.888;5.670;2023-08-08T10:44:56;957.38;;;884.67;;
48361;SDS011;34510;51.888;5.670;2023-08-08T10:50:08;969.15;;;895.20;;
48361;SDS011;34510;51.888;5.670;2023-08-08T10:55:18;1085.88;;;985.05;;
48361;SDS011;34510;51.888;5.670;2023-08-08T11:00:20;1094.15;;;991.78;;
48361;SDS011;34510;51.888;5.670;2023-08-08T11:05:23;1095.60;;;993.03;;
48361;SDS011;34510;51.888;5.670;2023-08-08T11:10:25;1094.28;;;991.70;;
48361;SDS011;34510;51.888;5.670;2023-08-08T11:15:33;1095.40;;;992.67;;
48361;SDS011;34510;51.888;5.670;2023-08-08T11:20:36;1099.88;;;996.17;;
48361;SDS011;34510;51.888;5.670;2023-08-08T11:25:40;1063.25;;;978.85;;
48361;SDS011;34510;51.888;5.670;2023-08-08T11:30:42;1046.60;;;964.95;;
48361;SDS011;34510;51.888;5.670;2023-08-08T11:35:45;1103.97;;;998.28;;
48361;SDS011;34510;51.888;5.670;2023-08-08T11:40:50;1101.85;;;997.70;;
48361;SDS011;34510;51.888;5.670;2023-08-08T11:45:54;1088.18;;;986.67;;
48361;SDS011;34510;51.888;5.670;2023-08-08T11:50:56;1083.95;;;982.38;;
48361;SDS011;34510;51.888;5.670;2023-08-08T11:55:58;1100.32;;;996.40;;
48361;SDS011;34510;51.888;5.670;2023-08-08T12:01:00;1101.32;;;996.72;;
48361;SDS011;34510;51.888;5.670;2023-08-08T12:06:03;1101.65;;;996.67;;
48361;SDS011;34510;51.888;5.670;2023-08-08T12:11:12;1093.32;;;991.58;;
48361;SDS011;34510;51.888;5.670;2023-08-08T12:16:15;1107.75;;;999.47;;
48361;SDS011;34510;51.888;5.670;2023-08-08T12:21:19;1104.40;;;998.20;;
48361;SDS011;34510;51.888;5.670;2023-08-08T12:26:20;1120.72;;;999.90;;
48361;SDS011;34510;51.888;5.670;2023-08-08T12:31:22;1107.43;;;999.28;;
48361;SDS011;34510;51.888;5.670;2023-08-08T12:36:24;1099.07;;;995.40;;
48361;SDS011;34510;51.888;5.670;2023-08-08T12:41:26;1096.38;;;993.90;;
48361;SDS011;34510;51.888;5.670;2023-08-08T12:46:31;1100.43;;;997.20;;
48361;SDS011;34510;51.888;5.670;2023-08-08T12:51:33;1094.28;;;992.10;;
48361;SDS011;34510;51.888;5.670;2023-08-08T12:56:34;1087.50;;;986.38;;
48361;SDS011;34510;51.888;5.670;2023-08-08T13:01:37;1090.70;;;989.28;;
48361;SDS011;34510;51.888;5.670;2023-08-08T13:06:39;1081.60;;;980.35;;
48361;SDS011;34510;51.888;5.670;2023-08-08T13:11:41;1094.22;;;992.25;;
48361;SDS011;34510;51.888;5.670;2023-08-08T13:16:43;1088.13;;;986.80;;
48361;SDS011;34510;51.888;5.670;2023-08-08T13:21:45;1095.93;;;994.05;;
48361;SDS011;34510;51.888;5.670;2023-08-08T13:26:47;1087.10;;;985.65;;
48361;SDS011;34510;51.888;5.670;2023-08-08T13:31:49;1096.93;;;994.60;;
48361;SDS011;34510;51.888;5.670;2023-08-08T13:36:50;1113.35;;;999.90;;
48361;SDS011;34510;51.888;5.670;2023-08-08T13:41:52;1108.75;;;999.33;;
48361;SDS011;34510;51.888;5.670;2023-08-08T13:46:54;1109.40;;;999.45;;
48361;SDS011;34510;51.888;5.670;2023-08-08T13:51:57;1107.43;;;999.42;;
48361;SDS011;34510;51.888;5.670;2023-08-08T13:57:00;1106.15;;;999.13;;
48361;SDS011;34510;51.888;5.670;2023-08-08T14:02:02;1108.75;;;999.38;;
48361;SDS011;34510;51.888;5.670;2023-08-08T14:07:04;1097.63;;;995.10;;
48361;SDS011;34510;51.888;5.670;2023-08-08T14:12:07;1110.13;;;999.90;;
48361;SDS011;34510;51.888;5.670;2023-08-08T14:17:08;1097.22;;;995.20;;
48361;SDS011;34510;51.888;5.670;2023-08-08T14:22:10;1099.85;;;996.50;;
48361;SDS011;34510;51.888;5.670;2023-08-08T14:27:13;1104.78;;;998.25;;
48361;SDS011;34510;51.888;5.670;2023-08-08T14:32:15;1091.90;;;990.22;;
48361;SDS011;34510;51.888;5.670;2023-08-08T14:37:17;1093.45;;;991.92;;
48361;SDS011;34510;51.888;5.670;2023-08-08T14:42:18;1094.65;;;992.72;;
48361;SDS011;34510;51.888;5.670;2023-08-08T14:47:21;1091.15;;;989.67;;
48361;SDS011;34510;51.888;5.670;2023-08-08T14:52:23;1113.75;;;999.90;;
48361;SDS011;34510;51.888;5.670;2023-08-08T14:57:27;1094.18;;;992.58;;
48361;SDS011;34510;51.888;5.670;2023-08-08T15:02:29;1105.28;;;998.72;;
48361;SDS011;34510;51.888;5.670;2023-08-08T15:07:31;1097.53;;;995.58;;
48361;SDS011;34510;51.888;5.670;2023-08-08T15:12:33;1086.85;;;985.25;;
48361;SDS011;34510;51.888;5.670;2023-08-08T15:17:35;1089.72;;;987.97;;
48361;SDS011;34510;51.888;5.670;2023-08-08T15:22:37;1075.70;;;975.00;;
48361;SDS011;34510;51.888;5.670;2023-08-08T15:27:39;1078.90;;;978.20;;
48361;SDS011;34510;51.888;5.670;2023-08-08T15:32:41;1086.57;;;985.42;;
48361;SDS011;34510;51.888;5.670;2023-08-08T15:37:43;1085.72;;;985.00;;
48361;SDS011;34510;51.888;5.670;2023-08-08T15:42:45;1069.97;;;970.10;;
48361;SDS011;34510;51.888;5.670;2023-08-08T15:47:48;1069.18;;;968.83;;
48361;SDS011;34510;51.888;5.670;2023-08-08T15:52:49;1074.80;;;973.95;;
48361;SDS011;34510;51.888;5.670;2023-08-08T15:57:53;1076.38;;;975.72;;
48361;SDS011;34510;51.888;5.670;2023-08-08T16:02:55;1080.85;;;979.67;;
48361;SDS011;34510;51.888;5.670;2023-08-08T16:07:57;1071.43;;;971.00;;
48361;SDS011;34510;51.888;5.670;2023-08-08T16:12:59;1082.57;;;981.40;;
48361;SDS011;34510;51.888;5.670;2023-08-08T16:18:03;1088.68;;;986.97;;
48361;SDS011;34510;51.888;5.670;2023-08-08T16:23:05;1069.88;;;969.50;;
48361;SDS011;34510;51.888;5.670;2023-08-08T16:28:06;1066.63;;;965.45;;
48361;SDS011;34510;51.888;5.670;2023-08-08T16:33:08;1066.50;;;965.88;;
48361;SDS011;34510;51.888;5.670;2023-08-08T16:38:12;1070.25;;;969.35;;
48361;SDS011;34510;51.888;5.670;2023-08-08T16:43:15;1059.47;;;959.47;;
48361;SDS011;34510;51.888;5.670;2023-08-08T16:48:17;1059.57;;;959.38;;
48361;SDS011;34510;51.888;5.670;2023-08-08T16:53:19;1066.28;;;965.78;;
48361;SDS011;34510;51.888;5.670;2023-08-08T16:58:21;1039.90;;;940.63;;
48361;SDS011;34510;51.888;5.670;2023-08-08T17:03:23;1047.53;;;947.40;;
48361;SDS011;34510;51.888;5.670;2023-08-08T17:08:25;1036.57;;;937.28;;
48361;SDS011;34510;51.888;5.670;2023-08-08T17:13:27;1026.95;;;928.35;;
48361;SDS011;34510;51.888;5.670;2023-08-08T17:18:28;1035.88;;;936.88;;
48361;SDS011;34510;51.888;5.670;2023-08-08T17:23:30;1031.60;;;932.40;;
48361;SDS011;34510;51.888;5.670;2023-08-08T17:28:32;1017.67;;;919.25;;
48361;SDS011;34510;51.888;5.670;2023-08-08T17:33:34;1025.80;;;927.08;;
48361;SDS011;34510;51.888;5.670;2023-08-08T17:38:36;1012.90;;;915.08;;
48361;SDS011;34510;51.888;5.670;2023-08-08T17:43:38;1005.95;;;908.40;;
48361;SDS011;34510;51.888;5.670;2023-08-08T17:48:40;1012.63;;;914.65;;
48361;SDS011;34510;51.888;5.670;2023-08-08T17:53:42;993.03;;;895.78;;
48361;SDS011;34510;51.888;5.670;2023-08-08T17:58:44;1012.83;;;914.55;;
48361;SDS011;34510;51.888;5.670;2023-08-08T18:03:46;998.25;;;900.35;;
48361;SDS011;34510;51.888;5.670;2023-08-08T18:08:48;993.65;;;895.95;;
48361;SDS011;34510;51.888;5.670;2023-08-08T18:13:50;991.17;;;893.50;;
48361;SDS011;34510;51.888;5.670;2023-08-08T18:18:52;975.53;;;878.78;;
48361;SDS011;34510;51.888;5.670;2023-08-08T18:23:53;976.17;;;879.05;;
48361;SDS011;34510;51.888;5.670;2023-08-08T18:28:55;935.78;;;851.03;;
48361;SDS011;34510;51.888;5.670;2023-08-08T18:34:00;945.72;;;850.70;;
48361;SDS011;34510;51.888;5.670;2023-08-08T18:39:02;795.00;;;735.90;;
48361;SDS011;34510;51.888;5.670;2023-08-08T18:44:04;905.38;;;834.60;;
48361;SDS011;34510;51.888;5.670;2023-08-08T18:49:07;796.63;;;737.38;;
48361;SDS011;34510;51.888;5.670;2023-08-08T18:54:09;915.15;;;828.08;;
48361;SDS011;34510;51.888;5.670;2023-08-08T18:59:11;926.70;;;832.55;;
48361;SDS011;34510;51.888;5.670;2023-08-08T19:04:13;907.72;;;814.00;;
48361;SDS011;34510;51.888;5.670;2023-08-08T19:09:15;929.80;;;834.33;;
48361;SDS011;34510;51.888;5.670;2023-08-08T19:14:20;911.22;;;816.85;;
48361;SDS011;34510;51.888;5.670;2023-08-08T19:19:22;890.42;;;799.35;;
48361;SDS011;34510;51.888;5.670;2023-08-08T19:24:24;907.45;;;813.33;;
48361;SDS011;34510;51.888;5.670;2023-08-08T19:29:25;814.47;;;751.95;;
48361;SDS011;34510;51.888;5.670;2023-08-08T19:34:27;825.42;;;761.50;;
48361;SDS011;34510;51.888;5.670;2023-08-08T19:39:29;841.03;;;774.70;;
48361;SDS011;34510;51.888;5.670;2023-08-08T19:44:34;840.22;;;773.72;;
48361;SDS011;34510;51.888;5.670;2023-08-08T19:49:35;884.55;;;804.63;;
48361;SDS011;34510;51.888;5.670;2023-08-08T19:54:37;873.88;;;780.80;;
48361;SDS011;34510;51.888;5.670;2023-08-08T19:59:39;855.63;;;783.45;;
48361;SDS011;34510;51.888;5.670;2023-08-08T20:04:42;874.53;;;785.40;;
48361;SDS011;34510;51.888;5.670;2023-08-08T20:09:44;901.22;;;807.35;;
48361;SDS011;34510;51.888;5.670;2023-08-08T20:14:46;889.47;;;797.28;;
48361;SDS011;34510;51.888;5.670;2023-08-08T20:19:47;874.70;;;786.80;;
48361;SDS011;34510;51.888;5.670;2023-08-08T20:24:50;868.25;;;776.15;;
48361;SDS011;34510;51.888;5.670;2023-08-08T20:29:52;888.78;;;796.03;;
48361;SDS011;34510;51.888;5.670;2023-08-08T20:34:54;869.47;;;777.38;;
48361;SDS011;34510;51.888;5.670;2023-08-08T20:39:55;893.28;;;799.95;;
48361;SDS011;34510;51.888;5.670;2023-08-08T20:44:57;882.40;;;789.40;;
48361;SDS011;34510;51.888;5.670;2023-08-08T20:49:59;881.70;;;789.03;;
48361;SDS011;34510;51.888;5.670;2023-08-08T20:55:01;882.38;;;789.75;;
48361;SDS011;34510;51.888;5.670;2023-08-08T21:00:03;887.15;;;794.00;;
48361;SDS011;34510;51.888;5.670;2023-08-08T21:05:07;890.22;;;797.03;;
48361;SDS011;34510;51.888;5.670;2023-08-08T21:10:09;880.13;;;787.45;;
48361;SDS011;34510;51.888;5.670;2023-08-08T21:15:11;891.80;;;798.80;;
48361;SDS011;34510;51.888;5.670;2023-08-08T21:20:13;894.92;;;801.88;;
48361;SDS011;34510;51.888;5.670;2023-08-08T21:25:15;872.75;;;780.95;;
48361;SDS011;34510;51.888;5.670;2023-08-08T21:30:17;881.70;;;789.30;;
48361;SDS011;34510;51.888;5.670;2023-08-08T21:35:20;904.90;;;812.03;;
48361;SDS011;34510;51.888;5.670;2023-08-08T21:40:22;891.60;;;798.72;;
48361;SDS011;34510;51.888;5.670;2023-08-08T21:45:24;887.47;;;794.63;;
48361;SDS011;34510;51.888;5.670;2023-08-08T21:50:25;886.97;;;794.25;;
48361;SDS011;34510;51.888;5.670;2023-08-08T21:55:27;873.58;;;783.35;;
48361;SDS011;34510;51.888;5.670;2023-08-08T22:00:29;885.63;;;800.03;;
48361;SDS011;34510;51.888;5.670;2023-08-08T22:05:31;885.67;;;799.15;;
48361;SDS011;34510;51.888;5.670;2023-08-08T22:10:33;871.03;;;795.20;;
48361;SDS011;34510;51.888;5.670;2023-08-08T22:15:35;883.03;;;802.40;;
48361;SDS011;34510;51.888;5.670;2023-08-08T22:20:38;886.47;;;803.50;;
48361;SDS011;34510;51.888;5.670;2023-08-08T22:25:40;875.38;;;792.05;;
48361;SDS011;34510;51.888;5.670;2023-08-08T22:30:42;869.85;;;782.58;;
48361;SDS011;34510;51.888;5.670;2023-08-08T22:35:43;860.53;;;785.90;;
48361;SDS011;34510;51.888;5.670;2023-08-08T22:40:45;866.03;;;781.78;;
48361;SDS011;34510;51.888;5.670;2023-08-08T22:45:48;860.53;;;770.80;;
48361;SDS011;34510;51.888;5.670;2023-08-08T22:50:50;863.85;;;772.15;;
48361;SDS011;34510;51.888;5.670;2023-08-08T22:55:52;857.95;;;766.13;;
48361;SDS011;34510;51.888;5.670;2023-08-08T23:00:54;883.30;;;790.47;;
48361;SDS011;34510;51.888;5.670;2023-08-08T23:05:57;878.33;;;785.65;;
48361;SDS011;34510;51.888;5.670;2023-08-08T23:10:58;882.25;;;789.22;;
48361;SDS011;34510;51.888;5.670;2023-08-08T23:16:01;870.30;;;777.85;;
48361;SDS011;34510;51.888;5.670;2023-08-08T23:21:02;878.28;;;785.45;;
48361;SDS011;34510;51.888;5.670;2023-08-08T23:26:04;880.30;;;787.50;;
48361;SDS011;34510;51.888;5.670;2023-08-08T23:31:07;882.42;;;789.67;;
48361;SDS011;34510;51.888;5.670;2023-08-08T23:36:09;904.25;;;810.42;;
48361;SDS011;34510;51.888;5.670;2023-08-08T23:41:10;905.08;;;811.00;;
48361;SDS011;34510;51.888;5.670;2023-08-08T23:46:12;884.92;;;791.97;;
48361;SDS011;34510;51.888;5.670;2023-08-08T23:51:14;886.10;;;792.90;;
48361;SDS011;34510;51.888;5.670;2023-08-08T23:56:16;874.90;;;782.13;;
